createdAt,value
2022-09-03T00:00:05.055Z,1.15
2022-09-03T00:05:45.719Z,0.75
2022-09-03T00:11:14.605Z,1.33
2022-09-03T00:16:21.838Z,1.17
2022-09-03T00:21:38.127Z,1.42
2022-09-03T00:26:45.255Z,1.15
2022-09-03T00:32:18.669Z,0.98
2022-09-03T00:37:20.923Z,0.80
2022-09-03T00:42:43.729Z,1.33
2022-09-03T00:48:09.240Z,1.12
2022-09-03T00:53:24.528Z,1.25
2022-09-03T00:58:29.910Z,1.20
2022-09-03T01:03:51.109Z,1.50
2022-09-03T01:09:02.255Z,1.25
2022-09-03T01:14:23.042Z,1.25
2022-09-03T01:19:40.203Z,1.08
2022-09-03T01:25:10.648Z,1.10
2022-09-03T01:30:23.970Z,1.60
2022-09-03T01:41:38.688Z,1.10
2022-09-03T01:46:45.514Z,1.20
2022-09-03T01:51:59.816Z,1.17
2022-09-03T01:57:35.411Z,1.05
2022-09-03T02:02:43.332Z,1.10
2022-09-03T02:08:05.160Z,1.10
2022-09-03T02:13:31.887Z,1.12
2022-09-03T02:18:38.579Z,1.42
2022-09-03T02:23:41.994Z,1.12
2022-09-03T02:28:44.682Z,1.40
2022-09-03T02:33:49.177Z,1.12
2022-09-03T02:38:51.539Z,0.98
2022-09-03T02:44:14.096Z,1.10
2022-09-03T02:49:16.401Z,0.77
2022-09-03T02:54:21.082Z,0.90
2022-09-03T02:59:23.453Z,0.88
2022-09-03T03:04:25.710Z,1.10
2022-09-03T03:09:27.800Z,1.27
2022-09-03T03:14:30.006Z,0.90
2022-09-03T03:19:32.175Z,1.27
2022-09-03T03:24:34.334Z,1.23
2022-09-03T03:29:36.786Z,0.88
2022-09-03T03:34:39.931Z,1.25
2022-09-03T03:39:42.109Z,1.20
2022-09-03T03:44:44.301Z,1.00
2022-09-03T03:49:46.542Z,1.10
2022-09-03T03:54:50.125Z,0.82
2022-09-03T03:59:52.233Z,1.15
2022-09-03T04:04:54.794Z,1.40
2022-09-03T04:09:56.943Z,1.10
2022-09-03T04:14:59.048Z,0.80
2022-09-03T04:20:01.469Z,1.00
2022-09-03T04:25:03.975Z,0.52
2022-09-03T04:30:06.809Z,0.57
2022-09-03T04:35:09.847Z,0.52
2022-09-03T04:40:12.037Z,0.85
2022-09-03T04:45:18.599Z,1.30
2022-09-03T04:50:20.721Z,1.17
2022-09-03T04:55:23.338Z,0.98
2022-09-03T05:00:25.543Z,0.77
2022-09-03T05:05:27.775Z,0.95
2022-09-03T05:10:31.808Z,0.65
2022-09-03T05:15:33.998Z,0.88
2022-09-03T05:20:36.107Z,1.45
2022-09-03T05:25:38.338Z,0.73
2022-09-03T05:30:40.444Z,1.10
2022-09-03T05:35:42.724Z,0.85
2022-09-03T05:40:44.945Z,0.73
2022-09-03T05:45:47.354Z,1.60
2022-09-03T05:50:49.613Z,1.00
2022-09-03T05:56:02.957Z,0.80
2022-09-03T06:06:17.446Z,1.10
2022-09-03T06:11:19.675Z,1.97
2022-09-03T06:16:29.008Z,1.37
2022-09-03T06:21:35.011Z,1.47
2022-09-03T06:26:37.428Z,1.08
2022-09-03T06:31:40.673Z,0.98
2022-09-03T06:36:42.908Z,1.60
2022-09-03T06:41:45.797Z,1.20
2022-09-03T06:46:48.455Z,1.00
2022-09-03T06:51:50.639Z,1.23
2022-09-03T06:56:52.752Z,1.67
2022-09-03T07:01:55.200Z,1.37
2022-09-03T07:06:57.620Z,1.33
2022-09-03T07:11:59.695Z,1.90
2022-09-03T07:17:01.881Z,0.80
2022-09-03T07:22:04.977Z,1.60
2022-09-03T07:27:12.993Z,1.12
2022-09-03T07:32:17.026Z,1.00
2022-09-03T07:37:19.216Z,1.47
2022-09-03T07:42:21.324Z,0.90
2022-09-03T07:47:25.184Z,1.20
2022-09-03T07:52:29.224Z,1.37
2022-09-03T07:57:31.418Z,1.15
2022-09-03T08:02:33.766Z,1.00
2022-09-03T08:07:35.923Z,1.98
2022-09-03T08:12:38.987Z,2.03
2022-09-03T08:17:44.506Z,1.30
2022-09-03T08:22:46.810Z,1.45
2022-09-03T08:27:48.968Z,1.83
2022-09-03T08:32:51.947Z,1.10
2022-09-03T08:37:56.823Z,0.95
2022-09-03T08:43:18.710Z,1.33
2022-09-03T08:48:25.907Z,1.00
2022-09-03T08:53:44.358Z,1.60
2022-09-03T08:58:46.653Z,1.80
2022-09-03T09:04:22.523Z,1.55
2022-09-03T09:09:39.060Z,2.35
2022-09-03T09:14:50.829Z,1.70
2022-09-03T09:20:25.153Z,2.95
2022-09-03T09:25:27.454Z,2.90
2022-09-03T09:30:31.997Z,2.72
2022-09-03T09:35:35.024Z,2.65
2022-09-03T09:40:45.711Z,2.92
2022-09-03T09:45:50.444Z,3.25
2022-09-03T09:51:11.895Z,3.58
2022-09-03T09:56:22.658Z,3.00
2022-09-03T10:01:30.232Z,3.20
2022-09-03T10:06:50.856Z,2.50
2022-09-03T10:12:04.257Z,3.15
2022-09-03T10:17:19.959Z,3.17
2022-09-03T10:22:26.121Z,3.12
2022-09-03T10:27:33.807Z,3.35
2022-09-03T10:32:48.404Z,3.20
2022-09-03T10:38:02.877Z,2.30
2022-09-03T10:43:07.695Z,2.35
2022-09-03T10:48:40.714Z,2.45
2022-09-03T10:54:27.159Z,2.30
2022-09-03T10:59:35.491Z,2.60
2022-09-03T11:04:46.770Z,3.03
2022-09-03T11:10:11.269Z,2.70
2022-09-03T11:15:30.845Z,2.20
2022-09-03T11:20:34.160Z,2.58
2022-09-03T11:25:42.642Z,2.62
2022-09-03T11:31:17.689Z,2.33
2022-09-03T11:36:32.789Z,2.00
2022-09-03T11:41:38.640Z,2.78
2022-09-03T11:46:41.549Z,2.25
2022-09-03T11:51:44.090Z,2.17
2022-09-03T11:56:50.396Z,2.47
2022-09-03T12:02:07.238Z,1.98
2022-09-03T12:07:12.535Z,1.37
2022-09-03T12:12:49.436Z,1.58
2022-09-03T12:18:18.093Z,2.00
2022-09-03T12:23:42.107Z,1.98
2022-09-03T12:28:49.440Z,1.90
2022-09-03T12:33:56.203Z,2.03
2022-09-03T12:39:11.975Z,1.62
2022-09-03T12:44:15.222Z,2.12
2022-09-03T12:49:33.658Z,1.65
2022-09-03T12:54:43.916Z,1.62
2022-09-03T12:59:58.461Z,2.30
2022-09-03T13:05:01.412Z,1.50
2022-09-03T13:10:08.134Z,1.75
2022-09-03T13:15:19.848Z,1.20
2022-09-03T13:20:43.859Z,1.70
2022-09-03T13:26:18.460Z,1.27
2022-09-03T13:31:39.785Z,1.05
2022-09-03T13:36:58.821Z,1.62
2022-09-03T13:42:18.212Z,1.58
2022-09-03T13:48:04.337Z,1.42
2022-09-03T13:53:22.813Z,1.60
2022-09-03T13:58:37.506Z,1.30
2022-09-03T14:03:57.176Z,1.20
2022-09-03T14:08:59.282Z,1.50
2022-09-03T14:14:38.629Z,0.95
2022-09-03T14:19:46.411Z,1.10
2022-09-03T14:25:24.193Z,1.35
2022-09-03T14:30:58.715Z,1.00
2022-09-03T14:36:31.023Z,1.23
2022-09-03T14:42:03.280Z,1.20
2022-09-03T14:47:35.499Z,1.02
2022-09-03T14:53:06.852Z,1.53
2022-09-03T14:58:11.997Z,1.67
2022-09-03T15:03:48.199Z,2.00
2022-09-03T15:09:06.137Z,1.92
2022-09-03T15:14:14.558Z,2.42
2022-09-03T15:19:27.879Z,2.53
2022-09-03T15:24:29.979Z,1.52
2022-09-03T15:35:03.970Z,1.27
2022-09-03T15:40:27.561Z,1.30
2022-09-03T15:45:39.359Z,1.30
2022-09-03T15:50:57.082Z,1.20
2022-09-03T15:56:14.736Z,1.50
2022-09-03T16:01:27.817Z,1.25
2022-09-03T16:06:44.573Z,1.50
2022-09-03T16:12:12.587Z,1.70
2022-09-03T16:17:35.952Z,2.20
2022-09-03T16:28:11.479Z,1.90
2022-09-03T16:33:28.482Z,1.83
2022-09-03T16:38:45.676Z,1.60
2022-09-03T16:43:54.247Z,1.80
2022-09-03T16:49:06.054Z,1.92
2022-09-03T16:54:20.045Z,2.87
2022-09-03T16:59:34.556Z,2.58
2022-09-03T17:04:59.151Z,2.25
2022-09-03T17:10:19.380Z,2.30
2022-09-03T17:15:43.853Z,2.40
2022-09-03T17:21:15.539Z,2.00
2022-09-03T17:26:47.822Z,1.73
2022-09-03T17:32:04.579Z,1.52
2022-09-03T17:37:44.776Z,2.10
2022-09-03T17:43:08.036Z,1.67
2022-09-03T17:48:31.456Z,1.60
2022-09-03T17:53:38.420Z,1.92
2022-09-03T17:59:01.887Z,2.72
2022-09-03T18:09:39.942Z,1.45
2022-09-03T18:14:56.733Z,1.70
2022-09-03T18:20:33.401Z,2.55
2022-09-03T18:25:58.345Z,2.45
2022-09-03T18:31:19.309Z,1.70
2022-09-03T18:36:40.847Z,2.10
2022-09-03T18:42:12.251Z,2.35
2022-09-03T18:48:16.358Z,1.92
2022-09-03T18:54:50.624Z,1.20
2022-09-03T19:00:28.743Z,1.27
2022-09-03T19:05:54.112Z,1.87
2022-09-03T19:11:33.486Z,1.03
2022-09-03T19:16:57.420Z,1.17
2022-09-03T19:28:21.265Z,0.90
2022-09-03T19:34:12.099Z,0.98
2022-09-03T19:39:47.839Z,0.98
2022-09-03T19:45:27.567Z,1.42
2022-09-03T19:50:52.394Z,1.10
2022-09-03T19:56:15.425Z,1.33
2022-09-03T20:01:37.661Z,1.10
2022-09-03T20:06:58.652Z,1.65
2022-09-03T20:12:10.049Z,1.33
2022-09-03T20:17:25.657Z,1.73
2022-09-03T20:22:39.638Z,1.70
2022-09-03T20:28:05.761Z,1.20
2022-09-03T20:33:55.022Z,1.00
2022-09-03T20:39:34.437Z,1.50
2022-09-03T20:45:08.425Z,1.65
2022-09-03T20:50:43.825Z,2.12
2022-09-03T20:55:50.638Z,1.50
2022-09-03T21:01:23.247Z,1.85
2022-09-03T21:06:42.427Z,2.00
2022-09-03T21:12:08.600Z,2.10
2022-09-03T21:17:52.431Z,0.57
2022-09-03T21:22:57.871Z,1.20
2022-09-03T21:28:07.501Z,1.80
2022-09-03T21:33:18.893Z,1.62
2022-09-03T21:38:25.562Z,1.98
2022-09-03T21:43:52.452Z,2.00
2022-09-03T21:49:01.239Z,1.90
2022-09-03T21:54:36.543Z,1.90
2022-09-03T21:59:38.716Z,2.70
2022-09-03T22:04:43.709Z,1.77
2022-09-03T22:10:01.434Z,2.12
2022-09-03T22:15:13.045Z,2.00
2022-09-03T22:20:17.299Z,1.90
2022-09-03T22:25:41.805Z,1.87
2022-09-03T22:30:54.807Z,2.65
2022-09-03T22:36:08.589Z,2.42
2022-09-03T22:41:35.961Z,2.08
2022-09-03T22:46:46.403Z,2.10
2022-09-03T22:51:54.362Z,1.90
2022-09-03T22:57:01.156Z,2.92
2022-09-03T23:02:23.886Z,2.80
2022-09-03T23:07:56.101Z,2.53
2022-09-03T23:13:28.271Z,2.33
2022-09-03T23:18:34.576Z,2.22
2022-09-03T23:23:46.867Z,2.50
2022-09-03T23:28:54.658Z,2.40
2022-09-03T23:33:57.210Z,2.30
2022-09-03T23:39:42.680Z,2.10
2022-09-03T23:45:03.456Z,2.03
2022-09-03T23:50:11.687Z,2.87
2022-09-03T23:55:33.375Z,2.08
